3MA9 weather

Marston Mills Heliport
Marston Mills, Massachusetts, United States

Public forecast

Using degrees Fahrenheit for public forecast. Weather courtesy of forecast.io.

METAR (pilot weather report)

Closest report is Cape Cod Coast Guard Air Station, 5.2 nm (9.6 km) WNW. Retrieved 2019/09/24 06:45 UTC (54 minutes ago):

KFMH 240645Z 28013G21KT 4SM SCT009 BKN025 OVC050 20/20 A2971 -RA

TAF (pilot weather forecast)

Closest forecast is Cape Cod Coast Guard Air Station, 5.2 nm (9.6 km) WNW. Retrieved 2019/09/24 06:24 UTC (1 hour ago):

TAF KFMH 240523Z 2406/2506 23012KT 3SM SHRA BKN008 OVC020 FM240700 23011KT 2SM +SHRA OVC008 FM241100 25007KT 5SM BR VCSH OVC020 FM241300 28007KT P6SM SCT200 FM242100 25010G17KT P6SM SCT250 FM250000 29006KT P6SM FEW250